createdAt,value
2018-11-10T00:00:17.252Z,8.29
2018-11-10T00:02:48.801Z,8.34
2018-11-10T00:05:20.100Z,8.38
2018-11-10T00:07:50.503Z,8.35
2018-11-10T00:10:21.720Z,8.45
2018-11-10T00:12:52.131Z,8.48
2018-11-10T00:15:22.549Z,8.60
2018-11-10T00:17:52.921Z,8.53
2018-11-10T00:20:23.276Z,8.48
2018-11-10T00:22:53.696Z,8.51
2018-11-10T00:25:24.140Z,8.48
2018-11-10T00:27:54.510Z,8.48
2018-11-10T00:30:24.867Z,8.48
2018-11-10T00:32:55.137Z,8.49
2018-11-10T00:35:25.634Z,8.56
2018-11-10T00:37:55.900Z,8.59
2018-11-10T00:40:26.623Z,8.61
2018-11-10T00:42:57.305Z,8.61
2018-11-10T00:45:27.973Z,8.57
2018-11-10T00:47:58.378Z,8.56
2018-11-10T00:50:29.036Z,8.58
2018-11-10T00:52:59.573Z,8.66
2018-11-10T00:55:29.993Z,8.64
2018-11-10T00:58:00.506Z,8.56
2018-11-10T01:00:30.871Z,8.58
2018-11-10T01:03:01.464Z,8.55
2018-11-10T01:05:32.100Z,8.58
2018-11-10T01:08:02.525Z,8.58
2018-11-10T01:10:33.020Z,8.51
2018-11-10T01:13:03.573Z,8.49
2018-11-10T01:15:33.928Z,8.48
2018-11-10T01:18:04.352Z,8.43
2018-11-10T01:20:34.680Z,8.38
2018-11-10T01:23:05.047Z,8.32
2018-11-10T01:25:35.479Z,8.27
2018-11-10T01:28:05.984Z,8.17
2018-11-10T01:30:36.307Z,8.10
2018-11-10T01:33:06.738Z,8.07
2018-11-10T01:35:37.093Z,8.06
2018-11-10T01:38:07.675Z,8.10
2018-11-10T01:40:38.196Z,8.03
2018-11-10T01:43:08.671Z,8.07
2018-11-10T01:45:39.338Z,8.09
2018-11-10T01:48:09.930Z,8.18
2018-11-10T01:50:40.396Z,8.28
2018-11-10T01:53:10.780Z,8.26
2018-11-10T01:55:41.248Z,8.23
2018-11-10T01:58:11.530Z,8.34
2018-11-10T02:00:42.027Z,8.34
2018-11-10T02:03:12.541Z,8.40
2018-11-10T02:05:42.791Z,8.38
2018-11-10T02:08:13.963Z,8.38
2018-11-10T02:10:44.337Z,8.55
2018-11-10T02:13:14.691Z,8.50
2018-11-10T02:15:45.209Z,8.54
2018-11-10T02:18:15.616Z,8.48
2018-11-10T02:20:46.192Z,8.54
2018-11-10T02:23:16.615Z,8.62
2018-11-10T02:25:47.127Z,8.59
2018-11-10T02:28:17.620Z,8.76
2018-11-10T02:30:48.448Z,8.72
2018-11-10T02:33:19.002Z,8.72
2018-11-10T02:35:49.374Z,8.64
2018-11-10T02:38:19.869Z,8.64
2018-11-10T02:40:50.460Z,8.62
2018-11-10T02:43:20.824Z,8.60
2018-11-10T02:45:51.195Z,8.59
2018-11-10T02:48:21.670Z,8.57
2018-11-10T02:50:52.196Z,8.50
2018-11-10T02:53:22.660Z,8.39
2018-11-10T02:55:52.920Z,8.37
2018-11-10T02:58:23.183Z,8.29
2018-11-10T03:00:53.695Z,8.25
2018-11-10T03:03:24.251Z,8.15
2018-11-10T03:05:54.888Z,8.35
2018-11-10T03:08:25.352Z,8.35
2018-11-10T03:10:55.918Z,8.40
2018-11-10T03:13:26.310Z,8.33
2018-11-10T03:15:57.407Z,8.35
2018-11-10T03:18:27.800Z,8.34
2018-11-10T03:20:58.126Z,8.40
2018-11-10T03:23:28.628Z,8.42
2018-11-10T03:25:59.042Z,8.45
2018-11-10T03:28:29.519Z,8.43
2018-11-10T03:30:59.890Z,8.41
2018-11-10T03:33:30.474Z,8.43
2018-11-10T03:36:00.843Z,8.38
2018-11-10T03:38:31.211Z,8.31
2018-11-10T03:41:01.857Z,8.29
2018-11-10T03:43:32.183Z,8.38
2018-11-10T03:46:02.580Z,8.43
2018-11-10T03:48:33.095Z,8.44
2018-11-10T03:51:03.313Z,8.53
2018-11-10T03:53:33.816Z,8.45
2018-11-10T03:56:04.224Z,8.43
2018-11-10T03:58:34.684Z,8.39
2018-11-10T04:01:05.845Z,8.37
2018-11-10T04:03:36.469Z,8.27
2018-11-10T04:06:06.889Z,8.19
2018-11-10T04:08:37.211Z,8.16
2018-11-10T04:11:07.703Z,8.17
2018-11-10T04:13:38.256Z,8.17
2018-11-10T04:16:08.854Z,8.21
2018-11-10T04:18:39.748Z,8.20
2018-11-10T04:21:10.239Z,8.22
2018-11-10T04:23:40.791Z,8.20
2018-11-10T04:26:11.103Z,8.24
2018-11-10T04:28:41.620Z,8.23
2018-11-10T04:31:12.056Z,8.23
2018-11-10T04:33:42.581Z,8.23
2018-11-10T04:36:13.031Z,8.24
2018-11-10T04:38:43.628Z,8.26
2018-11-10T04:41:14.120Z,8.23
2018-11-10T04:43:44.594Z,8.21
2018-11-10T04:46:14.920Z,8.22
2018-11-10T04:48:45.356Z,8.23
2018-11-10T04:51:15.887Z,8.30
2018-11-10T04:53:46.891Z,8.50
2018-11-10T04:56:18.147Z,8.48
2018-11-10T04:58:48.396Z,8.53
2018-11-10T05:01:18.885Z,8.64
2018-11-10T05:03:49.465Z,8.64
2018-11-10T05:06:19.942Z,8.71
2018-11-10T05:08:50.325Z,8.74
2018-11-10T05:11:20.700Z,8.79
2018-11-10T05:13:51.079Z,8.83
2018-11-10T05:16:21.564Z,8.87
2018-11-10T05:18:51.940Z,8.94
2018-11-10T05:21:22.392Z,8.97
2018-11-10T05:23:52.595Z,9.11
2018-11-10T05:26:23.075Z,9.06
2018-11-10T05:28:53.563Z,9.04
2018-11-10T05:31:24.002Z,9.03
2018-11-10T05:33:54.427Z,8.97
2018-11-10T05:36:25.047Z,8.99
2018-11-10T05:38:55.604Z,8.99
2018-11-10T05:41:26.032Z,9.05
2018-11-10T05:43:56.327Z,9.06
2018-11-10T05:46:26.796Z,9.02
2018-11-10T05:48:57.191Z,8.99
2018-11-10T05:51:27.691Z,9.01
2018-11-10T05:53:58.097Z,9.03
2018-11-10T05:56:28.436Z,8.99
2018-11-10T05:58:58.907Z,9.01
2018-11-10T06:01:29.544Z,8.98
2018-11-10T06:04:00.114Z,9.02
2018-11-10T06:06:30.696Z,9.07
2018-11-10T06:09:01.204Z,9.04
2018-11-10T06:11:31.709Z,9.00
2018-11-10T06:14:02.023Z,9.05
2018-11-10T06:16:32.388Z,9.06
2018-11-10T06:19:02.859Z,9.14
2018-11-10T06:21:33.222Z,9.06
2018-11-10T06:24:03.532Z,9.04
2018-11-10T06:26:34.036Z,9.14
2018-11-10T06:29:04.528Z,9.11
2018-11-10T06:31:34.900Z,9.15
2018-11-10T06:34:05.417Z,9.14
2018-11-10T06:36:35.847Z,9.19
2018-11-10T06:39:08.822Z,9.22
2018-11-10T06:41:39.177Z,9.25
2018-11-10T06:44:10.069Z,9.20
2018-11-10T06:46:40.355Z,9.19
2018-11-10T06:49:10.606Z,9.25
2018-11-10T06:51:42.147Z,9.24
2018-11-10T06:54:13.632Z,9.24
2018-11-10T06:56:44.091Z,9.25
2018-11-10T06:59:14.604Z,9.28
2018-11-10T07:01:45.145Z,9.35
2018-11-10T07:04:15.465Z,9.45
2018-11-10T07:06:45.920Z,9.43
2018-11-10T07:09:16.356Z,9.45
2018-11-10T07:11:46.912Z,9.53
2018-11-10T07:14:17.154Z,9.49
2018-11-10T07:16:47.672Z,9.54
2018-11-10T07:19:18.148Z,9.52
2018-11-10T07:21:48.621Z,9.57
2018-11-10T07:24:19.196Z,9.55
2018-11-10T07:26:50.188Z,9.54
2018-11-10T07:29:20.700Z,9.58
2018-11-10T07:31:51.081Z,9.65
2018-11-10T07:34:21.540Z,9.60
2018-11-10T07:36:52.108Z,9.60
2018-11-10T07:39:22.380Z,9.63
2018-11-10T07:41:52.792Z,9.65
2018-11-10T07:44:23.354Z,9.70
2018-11-10T07:46:53.934Z,9.73
2018-11-10T07:49:24.385Z,9.73
2018-11-10T07:51:54.802Z,9.79
2018-11-10T07:54:25.216Z,9.89
2018-11-10T07:56:55.654Z,9.91
2018-11-10T07:59:25.955Z,9.99
2018-11-10T08:01:56.335Z,9.96
2018-11-10T08:04:26.725Z,10.03
2018-11-10T08:06:57.191Z,10.08
2018-11-10T08:09:27.683Z,10.11
2018-11-10T08:11:58.181Z,10.13
2018-11-10T08:14:28.651Z,10.32
2018-11-10T08:16:58.915Z,10.40
2018-11-10T08:19:29.283Z,10.49
2018-11-10T08:22:00.103Z,10.63
2018-11-10T08:24:30.448Z,10.70
2018-11-10T08:27:01.114Z,11.02
2018-11-10T08:29:31.435Z,11.38
2018-11-10T08:32:01.725Z,11.16
2018-11-10T08:34:32.163Z,11.15
2018-11-10T08:37:02.579Z,11.09
2018-11-10T08:39:32.947Z,11.18
2018-11-10T08:42:03.409Z,11.09
2018-11-10T08:44:33.704Z,11.10
2018-11-10T08:47:04.210Z,11.06
2018-11-10T08:49:34.708Z,11.10
2018-11-10T08:52:05.371Z,11.08
2018-11-10T08:54:35.823Z,11.32
2018-11-10T08:57:06.445Z,11.50
2018-11-10T08:59:37.402Z,11.73
2018-11-10T09:02:07.819Z,11.90
2018-11-10T09:04:38.263Z,12.07
2018-11-10T09:07:08.570Z,12.16
2018-11-10T09:09:39.039Z,12.25
2018-11-10T09:12:10.595Z,12.29
2018-11-10T09:14:41.039Z,12.34
2018-11-10T09:17:11.387Z,12.46
2018-11-10T09:19:41.919Z,12.44
2018-11-10T09:22:12.347Z,12.47
2018-11-10T09:24:42.647Z,12.58
2018-11-10T09:27:13.088Z,12.59
2018-11-10T09:29:43.477Z,12.64
2018-11-10T09:32:13.864Z,12.66
2018-11-10T09:34:44.290Z,12.74
2018-11-10T09:37:14.838Z,12.69
2018-11-10T09:39:45.337Z,12.69
2018-11-10T09:42:15.914Z,12.57
2018-11-10T09:44:46.273Z,12.60
2018-11-10T09:47:16.653Z,12.53
2018-11-10T09:49:47.127Z,12.47
2018-11-10T09:52:17.645Z,12.45
2018-11-10T09:54:47.935Z,12.36
2018-11-10T09:57:18.373Z,12.37
2018-11-10T09:59:48.920Z,12.31
2018-11-10T10:02:19.894Z,12.23
2018-11-10T10:04:50.065Z,12.09
2018-11-10T10:07:20.393Z,12.18
2018-11-10T10:09:50.828Z,11.94
2018-11-10T10:12:21.560Z,12.03
2018-11-10T10:14:51.901Z,11.92
2018-11-10T10:17:22.372Z,11.95
2018-11-10T10:19:52.628Z,12.06
2018-11-10T10:22:22.992Z,12.17
2018-11-10T10:24:53.403Z,12.17
2018-11-10T10:27:23.891Z,12.21
2018-11-10T10:29:54.124Z,12.23
2018-11-10T10:32:24.635Z,12.23
2018-11-10T10:34:55.312Z,12.28
2018-11-10T10:37:26.216Z,12.29
2018-11-10T10:39:56.610Z,12.30
2018-11-10T10:42:27.033Z,12.25
2018-11-10T10:44:57.244Z,12.21
2018-11-10T10:47:27.742Z,12.23
2018-11-10T10:49:58.095Z,12.20
2018-11-10T10:52:28.519Z,12.16
2018-11-10T10:54:59.613Z,12.17
2018-11-10T10:57:29.973Z,12.17
2018-11-10T11:00:01.219Z,12.06
2018-11-10T11:02:36.943Z,12.25
2018-11-10T11:05:12.691Z,12.12
2018-11-10T11:07:43.144Z,12.37
2018-11-10T11:10:13.672Z,12.47
2018-11-10T11:12:44.095Z,12.63
2018-11-10T11:15:14.592Z,12.71
2018-11-10T11:17:45.071Z,12.67
2018-11-10T11:20:15.519Z,12.68
2018-11-10T11:22:46.022Z,12.65
2018-11-10T11:25:16.622Z,12.71
2018-11-10T11:27:47.129Z,12.82
2018-11-10T11:30:17.371Z,12.76
2018-11-10T11:32:47.822Z,12.67
2018-11-10T11:35:18.433Z,12.66
2018-11-10T11:37:48.887Z,12.61
2018-11-10T11:40:19.304Z,12.66
2018-11-10T11:42:49.687Z,12.48
2018-11-10T11:45:20.234Z,12.61
2018-11-10T11:47:50.716Z,12.61
2018-11-10T11:50:21.214Z,12.71
2018-11-10T11:52:51.727Z,12.72
2018-11-10T11:55:22.219Z,12.72
2018-11-10T11:58:16.256Z,12.78
2018-11-10T12:00:46.516Z,12.63
2018-11-10T12:03:16.866Z,12.54
2018-11-10T12:05:47.500Z,12.65
2018-11-10T12:08:18.068Z,12.75
2018-11-10T12:10:48.682Z,12.67
2018-11-10T12:13:19.076Z,12.76
2018-11-10T12:15:49.470Z,12.72
2018-11-10T12:18:19.911Z,12.61
2018-11-10T12:20:50.458Z,12.59
2018-11-10T12:23:20.913Z,12.50
2018-11-10T12:25:51.485Z,12.49
2018-11-10T12:28:21.955Z,12.48
2018-11-10T12:30:52.313Z,12.53
2018-11-10T12:33:22.733Z,12.58
2018-11-10T12:35:53.462Z,12.46
2018-11-10T12:38:23.895Z,12.53
2018-11-10T12:40:54.401Z,12.63
2018-11-10T12:43:25.553Z,12.61
2018-11-10T12:45:56.023Z,12.70
2018-11-10T12:48:26.422Z,12.75
2018-11-10T12:50:56.920Z,12.79
2018-11-10T12:53:27.284Z,12.71
2018-11-10T12:55:57.787Z,12.64
2018-11-10T12:58:28.987Z,12.67
2018-11-10T13:00:59.323Z,12.64
2018-11-10T13:03:29.916Z,12.57
2018-11-10T13:06:00.628Z,12.61
2018-11-10T13:08:30.914Z,12.60
2018-11-10T13:11:01.316Z,12.51
2018-11-10T13:13:31.644Z,12.53
2018-11-10T13:16:02.021Z,12.43
2018-11-10T13:18:32.671Z,12.40
2018-11-10T13:21:03.064Z,12.30
2018-11-10T13:23:33.479Z,12.34
2018-11-10T13:26:03.967Z,12.34
2018-11-10T13:28:34.312Z,12.31
2018-11-10T13:31:05.008Z,12.24
2018-11-10T13:33:35.402Z,12.22
2018-11-10T13:36:06.018Z,12.24
2018-11-10T13:38:36.389Z,12.18
2018-11-10T13:41:06.763Z,12.12
2018-11-10T13:43:37.182Z,12.08
2018-11-10T13:46:07.686Z,12.04
2018-11-10T13:48:38.171Z,11.98
2018-11-10T13:51:08.807Z,11.95
2018-11-10T13:53:38.711Z,11.98
2018-11-10T13:56:09.199Z,12.01
2018-11-10T13:58:39.716Z,12.03
2018-11-10T14:01:10.203Z,12.11
2018-11-10T14:03:40.593Z,12.09
2018-11-10T14:06:11.120Z,12.16
2018-11-10T14:08:41.548Z,12.17
2018-11-10T14:11:13.189Z,12.26
2018-11-10T14:13:43.636Z,12.40
2018-11-10T14:16:14.191Z,12.47
2018-11-10T14:18:44.518Z,12.49
2018-11-10T14:21:14.904Z,12.57
2018-11-10T14:23:46.237Z,12.65
2018-11-10T14:26:16.689Z,12.71
2018-11-10T14:28:47.022Z,12.76
2018-11-10T14:31:17.517Z,12.73
2018-11-10T14:33:48.020Z,12.74
2018-11-10T14:36:18.532Z,12.71
2018-11-10T14:38:48.847Z,12.69
2018-11-10T14:41:19.424Z,12.73
2018-11-10T14:43:49.815Z,12.74
2018-11-10T14:46:20.179Z,12.78
2018-11-10T14:48:50.411Z,12.77
2018-11-10T14:51:20.968Z,12.83
2018-11-10T14:53:51.360Z,12.88
2018-11-10T14:56:21.931Z,12.93
2018-11-10T14:58:52.307Z,12.89
2018-11-10T15:01:22.668Z,12.94
2018-11-10T15:03:53.051Z,12.85
2018-11-10T15:06:23.689Z,12.83
2018-11-10T15:08:54.141Z,12.92
2018-11-10T15:11:25.158Z,12.84
2018-11-10T15:13:55.613Z,12.86
2018-11-10T15:16:25.845Z,12.82
2018-11-10T15:18:56.271Z,12.76
2018-11-10T15:21:27.119Z,12.78
2018-11-10T15:23:57.602Z,12.76
2018-11-10T15:26:28.148Z,12.78
2018-11-10T15:28:58.579Z,12.86
2018-11-10T15:31:28.973Z,12.83
2018-11-10T15:33:59.341Z,12.82
2018-11-10T15:36:29.976Z,12.70
2018-11-10T15:39:00.583Z,12.68
2018-11-10T15:41:31.098Z,12.73
2018-11-10T15:44:01.524Z,12.75
2018-11-10T15:46:31.938Z,12.78
2018-11-10T15:49:02.251Z,12.68
2018-11-10T15:51:32.637Z,12.64
2018-11-10T15:54:02.816Z,12.70
2018-11-10T15:56:33.128Z,12.68
2018-11-10T15:59:03.574Z,12.66
2018-11-10T16:01:34.118Z,12.70
2018-11-10T16:04:04.558Z,12.69
2018-11-10T16:06:35.832Z,12.72
2018-11-10T16:09:09.428Z,12.70
2018-11-10T16:11:40.141Z,12.80
2018-11-10T16:14:10.612Z,12.76
2018-11-10T16:16:41.079Z,12.77
2018-11-10T16:19:11.556Z,12.84
2018-11-10T16:21:41.949Z,12.85
2018-11-10T16:24:12.295Z,12.83
2018-11-10T16:26:42.695Z,12.85
2018-11-10T16:29:13.182Z,12.84
2018-11-10T16:31:44.276Z,12.75
2018-11-10T16:34:14.814Z,12.92
2018-11-10T16:36:45.151Z,12.86
2018-11-10T16:39:15.481Z,12.97
2018-11-10T16:41:45.894Z,13.01
2018-11-10T16:44:16.343Z,13.05
2018-11-10T16:46:46.736Z,13.08
2018-11-10T16:49:18.031Z,13.02
2018-11-10T16:51:48.556Z,12.98
2018-11-10T16:54:18.997Z,13.01
2018-11-10T16:56:49.616Z,13.01
2018-11-10T16:59:20.188Z,13.01
2018-11-10T17:01:50.776Z,12.97
2018-11-10T17:04:21.347Z,12.82
2018-11-10T17:06:51.737Z,12.80
2018-11-10T17:09:22.008Z,12.77
2018-11-10T17:11:52.464Z,12.77
2018-11-10T17:14:22.994Z,12.76
2018-11-10T17:16:53.472Z,12.64
2018-11-10T17:19:24.035Z,12.69
2018-11-10T17:21:54.390Z,12.61
2018-11-10T17:24:24.553Z,12.55
2018-11-10T17:26:54.880Z,12.42
2018-11-10T17:29:25.114Z,12.45
2018-11-10T17:31:55.595Z,12.40
2018-11-10T17:34:26.003Z,12.32
2018-11-10T17:36:56.584Z,12.27
2018-11-10T17:39:27.016Z,12.27
2018-11-10T17:41:57.372Z,12.27
2018-11-10T17:44:28.491Z,12.06
2018-11-10T17:46:59.162Z,12.11
2018-11-10T17:49:29.633Z,12.08
2018-11-10T17:52:00.269Z,12.05
2018-11-10T17:54:30.560Z,12.06
2018-11-10T17:57:00.853Z,12.08
2018-11-10T17:59:31.479Z,12.11
2018-11-10T18:02:02.061Z,12.17
2018-11-10T18:04:32.824Z,12.15
2018-11-10T18:07:04.067Z,12.17
2018-11-10T18:09:34.480Z,12.10
2018-11-10T18:12:05.263Z,12.03
2018-11-10T18:14:35.807Z,11.97
2018-11-10T18:17:06.181Z,12.00
2018-11-10T18:19:36.732Z,12.00
2018-11-10T18:22:07.221Z,12.01
2018-11-10T18:24:37.730Z,12.03
2018-11-10T18:27:08.284Z,12.04
2018-11-10T18:29:39.653Z,12.03
2018-11-10T18:32:10.180Z,12.15
2018-11-10T18:34:40.732Z,12.10
2018-11-10T18:37:11.220Z,12.12
2018-11-10T18:39:41.816Z,12.10
2018-11-10T18:42:12.599Z,12.16
2018-11-10T18:44:42.987Z,12.04
2018-11-10T18:47:13.489Z,12.02
2018-11-10T18:49:44.032Z,11.99
2018-11-10T18:52:14.591Z,11.99
2018-11-10T18:54:45.177Z,11.93
2018-11-10T18:57:15.701Z,12.02
2018-11-10T18:59:46.052Z,11.98
2018-11-10T19:02:16.510Z,12.01
2018-11-10T19:04:47.151Z,11.90
2018-11-10T19:07:17.610Z,11.96
2018-11-10T19:09:48.128Z,11.98
2018-11-10T19:12:18.617Z,11.99
2018-11-10T19:14:48.987Z,12.01
2018-11-10T19:17:19.364Z,12.07
2018-11-10T19:19:49.753Z,12.07
2018-11-10T19:22:20.932Z,12.05
2018-11-10T19:24:51.416Z,12.06
2018-11-10T19:27:21.828Z,12.07
2018-11-10T19:29:52.373Z,12.03
2018-11-10T19:32:22.723Z,12.11
2018-11-10T19:34:53.131Z,12.12
2018-11-10T19:37:23.612Z,12.08
2018-11-10T19:39:54.618Z,12.11
2018-11-10T19:42:25.001Z,12.09
2018-11-10T19:44:56.971Z,12.10
2018-11-10T19:47:27.300Z,12.12
2018-11-10T19:49:57.881Z,12.18
2018-11-10T19:52:28.345Z,12.25
2018-11-10T19:54:58.862Z,12.19
2018-11-10T19:57:29.529Z,12.17
2018-11-10T19:59:59.769Z,12.18
2018-11-10T20:02:30.308Z,12.08
2018-11-10T20:05:00.775Z,12.06
2018-11-10T20:07:31.319Z,11.95
2018-11-10T20:10:01.887Z,12.03
2018-11-10T20:12:32.331Z,12.06
2018-11-10T20:15:02.715Z,12.10
2018-11-10T20:17:33.092Z,12.13
2018-11-10T20:20:03.659Z,12.12
2018-11-10T20:22:34.582Z,12.30
2018-11-10T20:25:05.506Z,12.23
2018-11-10T20:27:35.935Z,12.15
2018-11-10T20:30:09.149Z,12.17
2018-11-10T20:32:39.682Z,12.19
2018-11-10T20:35:11.420Z,12.15
2018-11-10T20:37:42.729Z,12.22
2018-11-10T20:40:14.422Z,12.16
2018-11-10T20:42:44.855Z,12.13
2018-11-10T20:45:18.410Z,12.25
2018-11-10T20:47:49.516Z,12.24
2018-11-10T20:50:20.336Z,12.25
2018-11-10T20:52:50.844Z,12.19
2018-11-10T20:55:21.382Z,12.23
2018-11-10T20:57:51.957Z,12.19
2018-11-10T21:00:23.178Z,12.18
2018-11-10T21:02:53.443Z,12.18
2018-11-10T21:05:23.997Z,12.18
2018-11-10T21:07:54.487Z,12.20
2018-11-10T21:10:25.067Z,12.19
2018-11-10T21:12:55.704Z,12.25
2018-11-10T21:15:26.321Z,12.22
2018-11-10T21:17:56.927Z,12.28
2018-11-10T21:20:27.300Z,12.22
2018-11-10T21:22:58.417Z,12.20
2018-11-10T21:25:28.891Z,12.20
2018-11-10T21:27:59.398Z,12.24
2018-11-10T21:30:30.302Z,12.13
2018-11-10T21:33:00.877Z,12.10
2018-11-10T21:35:31.364Z,12.05
2018-11-10T21:38:01.782Z,11.98
2018-11-10T21:40:33.134Z,11.89
2018-11-10T21:43:03.515Z,11.84
2018-11-10T21:45:34.071Z,11.84
2018-11-10T21:48:04.623Z,11.89
2018-11-10T21:50:35.110Z,11.86
2018-11-10T21:53:05.822Z,11.95
2018-11-10T21:55:36.300Z,11.97
2018-11-10T21:58:06.880Z,12.09
2018-11-10T22:00:37.307Z,12.10
2018-11-10T22:03:07.769Z,12.21
2018-11-10T22:05:38.301Z,12.26
2018-11-10T22:08:08.857Z,12.45
2018-11-10T22:10:39.501Z,12.48
2018-11-10T22:13:09.900Z,12.56
2018-11-10T22:15:40.517Z,12.57
2018-11-10T22:18:10.879Z,12.57
2018-11-10T22:20:41.382Z,12.72
2018-11-10T22:23:11.873Z,12.72
2018-11-10T22:25:42.508Z,12.71
2018-11-10T22:28:13.092Z,12.68
2018-11-10T22:30:43.822Z,12.65
2018-11-10T22:33:14.378Z,12.64
2018-11-10T22:35:45.023Z,12.65
2018-11-10T22:38:15.567Z,12.69
2018-11-10T22:40:46.197Z,12.77
2018-11-10T22:43:16.795Z,12.78
2018-11-10T22:45:47.163Z,12.75
2018-11-10T22:48:17.645Z,12.68
2018-11-10T22:50:48.212Z,12.67
2018-11-10T22:53:18.589Z,12.67
2018-11-10T22:55:49.187Z,12.63
2018-11-10T22:58:19.443Z,12.65
2018-11-10T23:00:55.107Z,12.64
2018-11-10T23:03:25.514Z,12.61
2018-11-10T23:05:56.004Z,12.61
2018-11-10T23:08:26.505Z,12.62
2018-11-10T23:10:57.203Z,12.45
2018-11-10T23:13:27.972Z,12.42
2018-11-10T23:15:58.392Z,12.36
2018-11-10T23:18:29.650Z,12.20
2018-11-10T23:21:00.924Z,12.19
2018-11-10T23:23:31.401Z,12.16
2018-11-10T23:26:01.922Z,12.06
2018-11-10T23:28:32.431Z,12.07
2018-11-10T23:31:03.197Z,11.96
2018-11-10T23:33:33.774Z,11.90
2018-11-10T23:36:04.357Z,11.85
2018-11-10T23:38:34.987Z,11.77
2018-11-10T23:41:05.442Z,11.82
2018-11-10T23:43:36.039Z,11.78
2018-11-10T23:46:06.859Z,11.79
2018-11-10T23:48:37.203Z,11.77
2018-11-10T23:51:08.031Z,11.74
2018-11-10T23:53:38.230Z,11.76
2018-11-10T23:56:08.826Z,11.73
2018-11-10T23:58:39.427Z,11.74
